Latest Weather Observations for Moree

IDN60801

Issued at 4:35 pm EST Friday 25 July 2014 (issued every 30 minutes, with the page automatically refreshed every 10 minutes)

About weather observations | Map of weather stations | Latest weather observations for NSW | Other Formats
Station Details ID: 053115 Name: MOREE AERO Lat: -29.49 Lon: 149.85 Height: 213.0 m
Data from the previous 72 hours. | See also: Recent months at Moree
Date/Time
EST
Temp
°C
App
Temp
°C
Dew
Point
Rel
Hum
%
Delta-T
°C
Wind Press
QNH
hPa
Press
MSL
hPa
Rain
since 9 am
mm
Dir
 
Spd
km/h
Gust
km/h
Spd
kts
Gust
kts
25/04:30pm 22.7 19.3 7.7 38 7.9 N 15 20 8 11 1022.1 - 0.0
25/04:00pm 23.0 18.5 6.2 33 8.6 N 19 26 10 14 1021.9 - 0.0
25/03:30pm 23.3 18.8 7.0 35 8.5 N 20 26 11 14 1021.9 - 0.0
25/03:00pm 23.5 20.0 7.3 35 8.5 N 15 24 8 13 1021.8 1022.0 0.0
25/02:30pm 23.9 19.9 6.8 33 8.9 N 17 24 9 13 1021.9 - 0.0
25/02:00pm 24.2 19.8 9.1 38 8.2 N 22 30 12 16 1022.3 - 0.0
25/01:30pm 22.6 18.0 9.5 43 7.1 N 24 33 13 18 1022.5 - 0.0
25/01:00pm 21.9 17.1 10.2 47 6.4 N 26 33 14 18 1023.1 - 0.0
25/12:30pm 20.6 15.4 10.1 51 5.7 NNE 28 33 15 18 1023.6 - 0.0
25/12:00pm 18.7 14.6 10.1 57 4.6 NNE 22 32 12 17 1024.1 1024.2 0.0
25/11:30am 18.6 14.9 10.0 57 4.6 N 20 28 11 15 1024.8 - 0.0
25/11:00am 18.3 13.1 10.3 59 4.3 N 28 33 15 18 1025.1 - 0.0
25/10:30am 17.5 13.5 10.6 64 3.7 NNE 22 32 12 17 1025.2 - 0.0
25/10:00am 16.1 11.0 10.5 69 3.0 NNE 28 35 15 19 1025.3 - 0.0
25/09:30am 15.9 10.7 10.4 70 2.9 NNE 28 35 15 19 1025.5 - 0.0
25/09:00am 14.9 10.0 10.1 73 2.5 NNE 26 39 14 21 1025.3 1025.5 0.0
25/08:30am 14.2 9.6 9.8 75 2.3 NNE 24 32 13 17 1025.0 - 0.0
25/08:00am 13.8 8.5 9.7 76 2.1 NE 28 35 15 19 1024.8 - 0.0
25/07:30am 13.5 8.1 9.4 76 2.1 NE 28 33 15 18 1024.5 - 0.0
25/07:00am 12.9 8.2 9.2 78 1.9 NNE 24 30 13 16 1024.2 - 0.0
25/06:30am 12.5 7.7 8.9 79 1.8 NNE 24 32 13 17 1023.8 - 0.0
25/06:00am 12.8 8.3 8.6 75 2.1 NNE 22 30 12 16 1023.6 1023.7 0.0
25/05:30am 12.8 7.9 8.6 75 2.1 NNE 24 32 13 17 1023.1 - 0.0
25/05:00am 13.1 8.2 8.5 73 2.3 NNE 24 33 13 18 1022.7 - 0.0
25/04:30am 13.6 8.2 8.2 70 2.7 NNE 26 33 14 18 1022.4 - 0.0
25/04:00am 14.0 8.6 8.0 67 3.0 NNE 26 35 14 19 1022.3 - 0.0
25/03:30am 14.4 8.6 7.8 64 3.3 NNE 28 37 15 20 1021.9 - 0.0
25/03:00am 14.5 8.5 7.2 61 3.6 NNE 28 35 15 19 1022.5 1022.6 0.0
25/02:30am 14.3 8.9 6.2 58 3.9 NNE 24 33 13 18 1022.6 - 0.0
25/02:00am 14.4 8.5 5.6 55 4.2 NE 26 37 14 20 1021.9 - 0.0
25/01:30am 14.5 8.5 5.2 53 4.4 NNE 26 32 14 17 1022.0 - 0.0
25/01:00am 15.2 9.2 5.4 52 4.7 NNE 26 35 14 19 1021.9 - 0.0
25/12:30am 15.5 9.1 5.0 49 5.0 NNE 28 37 15 20 1021.5 - 0.0
25/12:00am 15.8 10.1 4.9 48 5.2 NNE 24 35 13 19 1021.6 1021.8 0.0
 
Date/Time
EST
Temp
°C
App
Temp
°C
Dew
Point
Rel
Hum
%
Delta-T
°C
Wind Press
QNH
hPa
Press
MSL
hPa
Rain
since 9 am
mm
Dir
 
Spd
km/h
Gust
km/h
Spd
kts
Gust
kts
24/11:30pm 16.4 9.9 4.9 46 5.5 NNE 28 33 15 18 1021.5 - 0.0
24/11:00pm 16.6 10.5 4.9 46 5.6 NNE 26 35 14 19 1021.6 - 0.0
24/10:30pm 16.1 11.4 5.0 47 5.3 NE 19 22 10 12 1021.4 - 0.0
24/10:00pm 15.6 10.3 5.1 49 5.0 NE 22 26 12 14 1021.3 - 0.0
24/09:30pm 15.6 11.0 5.4 50 4.9 NE 19 22 10 12 1021.4 - 0.0
24/09:00pm 15.6 11.3 5.4 50 4.9 NE 17 20 9 11 1021.2 1021.4 0.0
24/08:30pm 15.3 11.0 5.2 51 4.8 NE 17 20 9 11 1021.0 - 0.0
24/08:00pm 15.7 11.4 5.3 50 5.0 NE 17 19 9 10 1020.9 - 0.0
24/07:30pm 16.0 12.1 5.4 49 5.1 NE 15 15 8 8 1020.6 - 0.0
24/07:00pm 16.7 12.8 5.3 47 5.5 NE 15 17 8 9 1020.3 - 0.0
24/06:30pm 17.7 13.8 5.4 44 6.0 NE 15 17 8 9 1019.9 - 0.0
24/06:00pm 18.7 15.2 5.5 42 6.5 NE 13 17 7 9 1019.6 1019.7 0.0
24/05:30pm 19.8 15.9 5.2 38 7.2 NNE 15 17 8 9 1019.4 - 0.0
24/05:00pm 21.2 16.5 5.1 35 8.0 N 19 26 10 14 1019.1 - 0.0
24/04:30pm 21.9 16.5 4.5 32 8.6 NNE 22 32 12 17 1019.1 - 0.0
24/04:00pm 22.2 17.3 5.0 32 8.6 N 20 32 11 17 1018.9 - 0.0
24/03:30pm 22.5 17.5 4.6 31 8.9 N 20 30 11 16 1018.9 - 0.0
24/03:00pm 22.1 16.6 6.0 35 8.2 NNE 24 30 13 16 1018.8 1018.9 0.0
24/02:30pm 22.7 17.5 5.5 32 8.7 N 22 30 12 16 1018.9 - 0.0
24/02:00pm 21.8 16.2 5.5 34 8.2 N 24 33 13 18 1019.2 - 0.0
24/01:30pm 22.4 16.3 6.7 36 8.1 NNE 28 35 15 19 1019.4 - 0.0
24/01:00pm 20.8 14.3 6.7 40 7.2 N 30 37 16 20 1019.8 - 0.0
24/12:30pm 19.7 15.1 6.7 42 6.6 N 20 26 11 14 1020.3 - 0.0
24/12:00pm 20.0 14.1 7.4 44 6.5 NNE 28 35 15 19 1020.9 1021.1 0.0
24/11:30am 18.8 12.9 7.5 47 5.8 N 28 39 15 21 1021.7 - 0.0
24/11:00am 18.0 12.1 7.4 50 5.4 N 28 37 15 20 1022.1 - 0.0
24/10:30am 17.3 11.1 7.9 54 4.8 NNE 30 37 16 20 1022.4 - 0.0
24/10:00am 16.4 9.9 8.2 58 4.2 NNE 32 41 17 22 1022.5 - 0.0
24/09:30am 15.2 9.1 8.1 62 3.6 NNE 30 41 16 22 1022.5 - 0.0
24/09:00am 14.2 9.5 7.8 65 3.2 NNE 22 32 12 17 1022.3 1022.4 0.0
24/08:30am 13.4 8.6 7.3 66 3.0 NE 22 30 12 16 1021.9 - 0.0
24/08:00am 13.2 8.7 7.1 66 3.0 NE 20 26 11 14 1021.6 - 0.0
24/07:30am 12.9 8.6 6.9 67 2.9 NNE 19 24 10 13 1021.2 - 0.0
24/07:00am 12.8 7.9 6.8 67 2.9 NE 22 30 12 16 1020.9 - 0.0
24/06:30am 12.8 7.8 6.6 66 3.0 NE 22 30 12 16 1020.4 - 0.0
24/06:00am 12.5 7.9 6.5 67 2.9 NNE 20 26 11 14 1020.2 1020.3 0.0
24/05:30am 12.8 7.8 6.3 64 3.1 NE 22 28 12 15 1019.9 - 0.0
24/05:00am 13.1 7.7 6.2 63 3.3 NNE 24 32 13 17 1019.9 - 0.0
24/04:30am 13.6 8.1 5.9 59 3.7 NNE 24 32 13 17 1019.8 - 0.0
24/04:00am 13.7 8.2 5.7 58 3.8 NNE 24 32 13 17 1019.5 - 0.0
24/03:30am 13.9 8.3 5.5 57 4.0 NNE 24 33 13 18 1019.7 - 0.0
24/03:00am 13.3 8.6 5.2 58 3.8 NE 19 26 10 14 1019.5 1019.6 0.0
24/02:30am 13.6 8.6 4.8 55 4.1 NE 20 30 11 16 1019.5 - 0.0
24/02:00am 13.7 8.3 4.7 54 4.2 NE 22 30 12 16 1019.7 - 0.0
24/01:30am 13.7 8.3 4.4 53 4.3 NE 22 26 12 14 1019.9 - 0.0
24/01:00am 13.8 7.2 4.3 52 4.4 NE 28 35 15 19 1019.9 - 0.0
24/12:30am 13.3 8.4 4.2 54 4.2 NE 19 26 10 14 1020.1 - 0.0
24/12:00am 11.5 6.4 4.2 61 3.3 E 20 28 11 15 1020.6 1020.8 0.0
 
Date/Time
EST
Temp
°C
App
Temp
°C
Dew
Point
Rel
Hum
%
Delta-T
°C
Wind Press
QNH
hPa
Press
MSL
hPa
Rain
since 9 am
mm
Dir
 
Spd
km/h
Gust
km/h
Spd
kts
Gust
kts
23/11:30pm 11.6 7.9 4.6 62 3.2 NE 13 13 7 7 1020.8 - 0.0
23/11:00pm 11.7 8.4 4.5 61 3.3 ENE 11 11 6 6 1020.8 - 0.0
23/10:30pm 12.1 8.8 4.5 59 3.5 ENE 11 13 6 7 1020.8 - 0.0
23/10:00pm 12.3 9.8 4.7 60 3.5 ENE 7 9 4 5 1021.1 - 0.0
23/09:30pm 12.2 9.2 4.1 57 3.7 NE 9 13 5 7 1020.7 - 0.0
23/09:00pm 12.3 8.9 4.2 57 3.7 E 11 11 6 6 1020.8 1021.0 0.0
23/08:30pm 12.5 10.0 4.7 59 3.6 ESE 7 7 4 4 1021.0 - 0.0
23/08:00pm 12.7 10.2 4.7 58 3.7 NE 7 9 4 5 1020.6 - 0.0
23/07:30pm 12.8 10.6 5.3 60 3.5 NE 6 7 3 4 1020.3 - 0.0
23/07:00pm 13.3 10.4 4.7 56 4.0 NE 9 11 5 6 1019.9 - 0.0
23/06:30pm 14.5 13.5 5.5 54 4.3 CALM 0 0 0 0 1020.0 - 0.0
23/06:00pm 15.0 12.8 5.4 52 4.6 NNE 6 7 3 4 1019.8 1019.9 0.0
23/05:30pm 17.0 14.1 4.9 44 5.8 NNE 9 11 5 6 1019.7 - 0.0
23/05:00pm 18.2 14.5 4.2 39 6.7 NE 13 15 7 8 1019.3 - 0.0
23/04:30pm 18.5 14.4 4.1 38 6.9 NE 15 17 8 9 1019.2 - 0.0
23/04:00pm 19.0 14.8 4.0 37 7.2 NNE 15 20 8 11 1019.6 - 0.0
23/03:30pm 20.3 16.4 3.6 33 8.0 NE 13 19 7 10 1019.6 - 0.0
23/03:00pm 20.8 17.3 3.5 32 8.3 NNE 11 17 6 9 1019.4 1019.5 0.0
23/02:30pm 20.0 16.9 3.8 34 7.8 ENE 9 17 5 9 1019.8 - 0.0
23/02:00pm 19.5 15.8 4.2 36 7.4 NE 13 22 7 12 1019.8 - 0.0
23/01:30pm 20.0 17.1 4.9 37 7.4 N 9 17 5 9 1020.2 - 0.0
23/01:00pm 19.5 15.9 5.0 38 7.1 NNE 13 19 7 10 1020.7 - 0.0
23/12:30pm 19.0 15.4 5.1 40 6.8 N 13 24 7 13 1021.1 - 0.0
23/12:00pm 18.6 14.7 5.3 41 6.5 N 15 24 8 13 1021.7 1021.9 0.0
23/11:30am 17.5 12.8 5.1 44 6.0 NNE 19 28 10 15 1022.6 - 0.0
23/11:00am 17.5 13.5 4.8 43 6.1 NNE 15 17 8 9 1023.3 - 0.0
23/10:30am 16.7 11.9 4.8 45 5.7 ENE 19 26 10 14 1023.8 - 0.0
23/10:00am 15.5 11.0 4.4 47 5.2 ENE 17 26 9 14 1024.0 - 0.0
23/09:30am 14.3 9.9 4.9 53 4.4 ENE 17 26 9 14 1024.2 - 0.0
23/09:00am 12.5 7.7 4.7 59 3.6 E 19 24 10 13 1024.3 1024.4 0.0
23/08:30am 11.4 6.6 4.9 64 3.0 E 19 24 10 13 1024.1 - 0.0
23/08:00am 8.7 3.8 4.2 73 2.0 E 19 24 10 13 1023.6 - 0.0
23/07:30am 6.8 2.2 3.8 81 1.3 ENE 17 22 9 12 1023.2 - 0.0
23/07:00am 6.1 1.1 3.5 83 1.1 ENE 19 26 10 14 1022.9 - 0.0
23/06:30am 5.7 1.4 3.3 84 1.0 ENE 15 19 8 10 1022.5 - 0.0
23/06:00am 5.5 1.6 3.4 86 0.9 ENE 13 15 7 8 1022.1 1022.3 0.0
23/05:30am 6.2 2.7 3.6 83 1.1 ENE 11 13 6 7 1021.8 - 0.0
23/05:00am 6.7 3.3 3.9 82 1.2 ENE 11 13 6 7 1021.5 - 0.0
23/04:30am 6.6 2.8 3.8 82 1.2 E 13 15 7 8 1021.2 - 0.0
23/04:00am 7.0 2.8 3.7 79 1.4 E 15 17 8 9 1021.0 - 0.0
23/03:30am 7.5 3.3 3.8 77 1.6 E 15 17 8 9 1021.0 - 0.0
23/03:00am 7.7 2.7 3.8 76 1.7 E 19 26 10 14 1020.8 1021.0 0.0
23/02:30am 7.2 2.6 3.5 77 1.6 E 17 24 9 13 1020.8 - 0.0
23/02:00am 6.3 2.3 3.0 79 1.4 ENE 13 17 7 9 1020.9 - 0.0
23/01:30am 6.9 2.6 3.1 77 1.6 E 15 17 8 9 1020.9 - 0.0
23/01:00am 7.9 3.2 3.2 72 2.0 E 17 19 9 10 1021.0 - 0.0
23/12:30am 8.1 4.2 3.5 73 2.0 ESE 13 20 7 11 1021.1 - 0.0
23/12:00am 9.6 5.1 4.2 69 2.4 ESE 17 19 9 10 1021.3 1021.5 0.0
 
Date/Time
EST
Temp
°C
App
Temp
°C
Dew
Point
Rel
Hum
%
Delta-T
°C
Wind Press
QNH
hPa
Press
MSL
hPa
Rain
since 9 am
mm
Dir
 
Spd
km/h
Gust
km/h
Spd
kts
Gust
kts
22/11:30pm 11.2 7.5 4.4 63 3.1 ESE 13 15 7 8 1021.5 - 0.0
22/11:00pm 10.3 6.6 4.3 66 2.7 ESE 13 15 7 8 1021.4 - 0.0
22/10:30pm 11.8 8.5 4.6 61 3.3 SE 11 13 6 7 1021.6 - 0.0
22/10:00pm 11.5 8.5 4.2 61 3.3 SE 9 11 5 6 1021.6 - 0.0
22/09:30pm 9.6 7.1 5.0 73 2.1 S 7 9 4 5 1021.5 - 0.0
22/09:00pm 9.7 8.3 5.3 74 2.0 SSW 2 6 1 3 1021.2 1021.4 0.0
22/08:30pm 9.4 7.7 4.2 70 2.3 SSW 2 6 1 3 1021.1 - 0.0
22/08:00pm 10.9 9.0 4.8 66 2.8 WSW 4 11 2 6 1021.0 - 0.0
22/07:30pm 12.0 9.2 5.1 62 3.2 SSW 9 9 5 5 1021.3 - 0.0
22/07:00pm 12.1 8.8 4.7 60 3.4 S 11 15 6 8 1020.9 - 0.0
22/06:30pm 12.4 9.1 4.3 57 3.7 S 11 13 6 7 1020.8 - 0.0
22/06:00pm 14.4 11.3 5.6 55 4.2 SSW 11 11 6 6 1020.6 1020.8 0.0
22/05:30pm 16.3 13.0 4.5 45 5.6 SW 11 13 6 7 1020.3 - 0.0
22/05:00pm 18.5 14.7 4.1 38 6.9 WSW 13 17 7 9 1020.0 - 0.0

Other Formats:

Comma delimited format used in spreadsheet applications
http://www.bom.gov.au/fwo/IDN60801/IDN60801.95527.axf

JavaScript Object Notation format (JSON) in row-major order
http://www.bom.gov.au/fwo/IDN60801/IDN60801.95527.json